Time;durP1;ratioP1;P1;durP2;ratioP2;P2;SDS_P1;SDS_P2;PMS_P1;PMS_P2;Temp;Humidity;BMP_temperature;BMP_pressure;BME280_temperature;BME280_humidity;BME280_pressure;Samples;Min_cycle;Max_cycle;Signal;HPM_P1;HPM_P2
2023/07/22 00:02:22;;;;;;;9.45;4.75;;;14.80;99.90;;;;;;6179289;23;20005;-83
2023/07/22 00:04:48;;;;;;;7.78;4.72;;;14.80;99.90;;;;;;6178058;23;20092;-83
2023/07/22 00:07:15;;;;;;;7.53;5.22;;;14.80;99.90;;;;;;6179467;23;20001;-84
2023/07/22 00:09:42;;;;;;;5.57;3.35;;;14.90;99.90;;;;;;6179401;23;20036;-84
2023/07/22 00:12:09;;;;;;;10.70;4.07;;;14.90;99.90;;;;;;6179884;23;20021;-85
2023/07/22 00:14:41;;;;;;;7.63;5.43;;;14.90;99.90;;;;;;6178605;23;20005;-85
2023/07/22 00:17:07;;;;;;;14.93;5.93;;;14.90;99.90;;;;;;6179123;23;20083;-82
2023/07/22 00:19:33;;;;;;;8.75;5.78;;;14.90;99.90;;;;;;6180025;23;20007;-82
2023/07/22 00:21:59;;;;;;;13.85;5.82;;;14.90;99.90;;;;;;6178862;23;20366;-82
2023/07/22 00:24:25;;;;;;;7.03;5.10;;;14.90;99.90;;;;;;6179344;23;20100;-84
2023/07/22 00:26:51;;;;;;;6.53;4.85;;;14.90;99.90;;;;;;6177635;23;20092;-83
2023/07/22 00:29:16;;;;;;;11.82;5.38;;;14.90;99.90;;;;;;6179449;23;20005;-83
2023/07/22 00:31:47;;;;;;;15.68;7.03;;;14.90;99.90;;;;;;6177801;23;20001;-82
2023/07/22 00:34:13;;;;;;;8.45;5.53;;;14.80;99.90;;;;;;6150794;23;20011;-84
2023/07/22 00:36:39;;;;;;;14.68;5.32;;;14.80;99.90;;;;;;6179715;23;20001;-83
2023/07/22 00:39:05;;;;;;;8.73;5.93;;;14.80;99.90;;;;;;6179139;23;20335;-83
2023/07/22 00:41:31;;;;;;;11.40;6.03;;;14.80;99.90;;;;;;6152649;23;20005;-83
2023/07/22 00:43:57;;;;;;;8.30;6.18;;;14.80;99.90;;;;;;6176918;23;20040;-84
2023/07/22 00:46:22;;;;;;;8.25;5.72;;;14.80;99.90;;;;;;6179560;23;20004;-83
2023/07/22 00:48:49;;;;;;;8.82;6.38;;;14.80;99.90;;;;;;6179283;23;20020;-83
2023/07/22 00:51:15;;;;;;;8.70;6.22;;;14.80;99.90;;;;;;6179103;23;20005;-83
2023/07/22 00:53:41;;;;;;;11.75;7.20;;;14.70;99.90;;;;;;6153246;23;20089;-82
2023/07/22 00:56:06;;;;;;;10.63;6.03;;;14.70;99.90;;;;;;6177521;23;20100;-84
2023/07/22 00:58:33;;;;;;;8.82;6.68;;;14.70;99.90;;;;;;6179142;23;20072;-87
2023/07/22 01:00:59;;;;;;;9.05;6.95;;;14.60;99.90;;;;;;6178852;23;20001;-82
2023/07/22 01:03:25;;;;;;;11.10;7.15;;;14.60;99.90;;;;;;6177536;23;20013;-84
2023/07/22 01:05:53;;;;;;;16.70;7.88;;;14.60;99.90;;;;;;6177749;23;20051;-83
2023/07/22 01:08:20;;;;;;;13.52;6.93;;;14.60;99.90;;;;;;6177879;23;20005;-86
2023/07/22 01:10:46;;;;;;;21.63;7.88;;;14.60;99.90;;;;;;6178428;23;20617;-85
2023/07/22 01:13:11;;;;;;;10.20;7.45;;;14.50;99.90;;;;;;6177908;23;20012;-86
2023/07/22 01:15:38;;;;;;;10.27;7.20;;;14.50;99.90;;;;;;6178540;23;20031;-84
2023/07/22 01:18:03;;;;;;;10.82;6.88;;;14.50;99.90;;;;;;6178033;23;20360;-85
2023/07/22 01:20:32;;;;;;;9.63;7.72;;;14.50;99.90;;;;;;6178228;23;20036;-86
2023/07/22 01:22:58;;;;;;;10.50;7.82;;;14.50;99.90;;;;;;6179521;23;20009;-83
2023/07/22 01:25:24;;;;;;;13.50;8.18;;;14.40;99.90;;;;;;6178939;23;20087;-83
2023/07/22 01:27:53;;;;;;;9.75;6.40;;;14.40;99.90;;;;;;6178943;23;21003;-84
2023/07/22 01:30:19;;;;;;;12.75;7.35;;;14.40;99.90;;;;;;6151987;23;20005;-84
2023/07/22 01:32:46;;;;;;;13.05;7.97;;;14.40;99.90;;;;;;6178340;23;20012;-85
2023/07/22 01:35:12;;;;;;;16.67;9.05;;;14.40;99.90;;;;;;6178521;23;20001;-84
2023/07/22 01:37:37;;;;;;;13.48;7.97;;;14.30;99.90;;;;;;6179367;23;20309;-85
2023/07/22 01:40:12;;;;;;;11.93;7.63;;;14.30;99.90;;;;;;6177979;23;20001;-84
2023/07/22 01:42:42;;;;;;;13.20;8.50;;;14.30;99.90;;;;;;6177259;23;20066;-84
2023/07/22 01:45:09;;;;;;;9.38;6.97;;;14.40;99.90;;;;;;6179129;23;20013;-85
2023/07/22 01:47:40;;;;;;;13.68;7.85;;;14.30;99.90;;;;;;6178451;23;20033;-83
2023/07/22 01:50:06;;;;;;;15.50;8.93;;;14.40;99.90;;;;;;6178254;23;20008;-84
2023/07/22 01:52:32;;;;;;;13.88;8.35;;;14.30;99.90;;;;;;6176975;23;20055;-84
2023/07/22 01:54:57;;;;;;;13.80;8.60;;;14.20;99.90;;;;;;6178123;23;20009;-85
2023/07/22 01:57:23;;;;;;;13.73;8.18;;;14.20;99.90;;;;;;6176372;23;20009;-82
2023/07/22 01:59:49;;;;;;;15.27;9.80;;;14.20;99.90;;;;;;6178288;23;20454;-84
2023/07/22 02:02:14;;;;;;;11.23;8.23;;;14.20;99.90;;;;;;6178312;23;20001;-84
2023/07/22 02:04:40;;;;;;;10.95;7.18;;;14.10;99.90;;;;;;6178293;23;20443;-85
2023/07/22 02:07:06;;;;;;;20.52;9.88;;;14.10;99.90;;;;;;6178686;23;20453;-84
2023/07/22 02:09:34;;;;;;;16.33;8.98;;;14.10;99.90;;;;;;6176662;23;20088;-84
2023/07/22 02:12:00;;;;;;;13.65;9.85;;;14.20;99.90;;;;;;6178364;23;20033;-83
2023/07/22 02:14:26;;;;;;;15.68;9.35;;;14.10;99.90;;;;;;6152078;23;20009;-84
2023/07/22 02:16:51;;;;;;;18.42;9.60;;;14.10;99.90;;;;;;6177020;23;20486;-84
2023/07/22 02:19:17;;;;;;;19.75;8.93;;;14.10;99.90;;;;;;6176863;23;19997;-85
2023/07/22 02:21:42;;;;;;;18.20;9.70;;;14.00;99.90;;;;;;6177091;23;20008;-84
2023/07/22 02:24:09;;;;;;;14.75;8.82;;;14.00;99.90;;;;;;6176696;23;20216;-83
2023/07/22 02:26:34;;;;;;;14.35;9.23;;;14.00;99.90;;;;;;6177155;23;20427;-83
2023/07/22 02:29:00;;;;;;;16.75;9.48;;;14.00;99.90;;;;;;6177151;23;20031;-84
2023/07/22 02:31:26;;;;;;;14.43;8.60;;;14.00;99.90;;;;;;6176420;23;20016;-86
2023/07/22 02:33:51;;;;;;;13.43;8.38;;;14.00;99.90;;;;;;6176769;23;20001;-83
2023/07/22 02:36:17;;;;;;;16.52;9.10;;;13.90;99.90;;;;;;6177457;23;20112;-84
2023/07/22 02:38:43;;;;;;;16.90;9.55;;;13.90;99.90;;;;;;6150777;23;20001;-84
2023/07/22 02:41:08;;;;;;;13.45;8.98;;;13.90;99.90;;;;;;6177258;23;20004;-85
2023/07/22 02:43:35;;;;;;;14.88;9.60;;;13.90;99.90;;;;;;6177873;23;20013;-84
2023/07/22 02:46:07;;;;;;;17.05;9.02;;;13.80;99.90;;;;;;6177012;23;20012;-84
2023/07/22 02:48:33;;;;;;;21.48;10.35;;;13.90;99.90;;;;;;6177438;23;20076;-84
2023/07/22 02:51:12;;;;;;;21.80;10.73;;;13.80;99.90;;;;;;6176839;23;20036;-83
2023/07/22 02:53:38;;;;;;;16.77;9.27;;;13.80;99.90;;;;;;6177362;23;20001;-84
2023/07/22 02:56:04;;;;;;;13.43;8.38;;;13.80;99.90;;;;;;6177902;23;20009;-84
2023/07/22 02:58:30;;;;;;;11.52;7.80;;;13.70;99.90;;;;;;6177449;23;20091;-84
2023/07/22 03:00:58;;;;;;;14.38;8.88;;;13.70;99.90;;;;;;6149795;23;20025;-84
2023/07/22 03:03:27;;;;;;;28.27;11.32;;;13.70;99.90;;;;;;6177377;23;20017;-86
2023/07/22 03:05:52;;;;;;;13.27;8.43;;;13.70;99.90;;;;;;6177435;23;20036;-85
2023/07/22 03:08:18;;;;;;;13.80;9.25;;;13.70;99.90;;;;;;6177187;23;20531;-84
2023/07/22 03:10:48;;;;;;;11.98;8.63;;;13.70;99.90;;;;;;6177767;23;20028;-85
2023/07/22 03:13:15;;;;;;;13.45;7.85;;;13.70;99.90;;;;;;6176295;23;20011;-86
2023/07/22 03:15:41;;;;;;;13.98;8.00;;;13.80;99.90;;;;;;6176903;23;20043;-84
2023/07/22 03:18:07;;;;;;;10.95;6.78;;;13.70;99.90;;;;;;6177314;23;20501;-85
2023/07/22 03:20:33;;;;;;;12.90;7.75;;;13.80;99.90;;;;;;6177321;23;20033;-84
2023/07/22 03:22:59;;;;;;;8.23;6.43;;;13.80;99.90;;;;;;6177044;23;20274;-84
2023/07/22 03:25:24;;;;;;;9.20;6.53;;;13.80;99.90;;;;;;6176493;23;20033;-85
2023/07/22 03:27:50;;;;;;;14.48;8.38;;;13.80;99.90;;;;;;6150480;23;20436;-85
2023/07/22 03:30:17;;;;;;;10.55;7.35;;;13.80;99.90;;;;;;6176433;23;20001;-84
2023/07/22 03:32:47;;;;;;;10.23;7.30;;;13.70;99.90;;;;;;6177201;23;20006;-85
2023/07/22 03:35:13;;;;;;;19.08;8.73;;;13.70;99.90;;;;;;6176135;23;20356;-84
2023/07/22 03:37:43;;;;;;;11.90;8.63;;;13.70;99.90;;;;;;6176987;23;20080;-85
2023/07/22 03:40:26;;;;;;;18.60;10.07;;;13.70;99.90;;;;;;6176445;23;20009;-84
2023/07/22 03:42:54;;;;;;;23.05;12.27;;;13.60;99.90;;;;;;6176371;23;20005;-85
2023/07/22 03:45:21;;;;;;;20.50;12.07;;;13.70;99.90;;;;;;6176116;23;20012;-86
2023/07/22 03:47:50;;;;;;;18.73;11.77;;;13.70;99.90;;;;;;6176652;23;19997;-81
2023/07/22 03:50:16;;;;;;;18.15;12.18;;;13.70;99.90;;;;;;6150266;23;20343;-84
2023/07/22 03:52:41;;;;;;;24.85;12.45;;;13.60;99.90;;;;;;6176617;23;20005;-81
2023/07/22 03:55:07;;;;;;;22.55;11.93;;;13.70;99.90;;;;;;6177145;23;20009;-85
2023/07/22 03:57:33;;;;;;;26.25;12.43;;;13.70;99.90;;;;;;6176524;23;19997;-85
2023/07/22 03:59:59;;;;;;;20.40;11.52;;;13.70;99.90;;;;;;6151280;23;20005;-84
2023/07/22 04:02:24;;;;;;;21.98;12.05;;;13.70;99.90;;;;;;6177184;23;20131;-84
2023/07/22 04:04:54;;;;;;;26.88;13.45;;;13.80;99.90;;;;;;6178015;23;20347;-84
2023/07/22 04:07:22;;;;;;;19.65;10.75;;;13.80;99.90;;;;;;6176823;23;19997;-84
2023/07/22 04:09:48;;;;;;;21.33;11.63;;;13.80;99.90;;;;;;6174709;23;20104;-84
2023/07/22 04:12:14;;;;;;;25.30;11.32;;;13.80;99.90;;;;;;6176034;23;20379;-84
2023/07/22 04:14:40;;;;;;;19.05;10.88;;;13.80;99.90;;;;;;6176286;23;20012;-82
2023/07/22 04:17:06;;;;;;;16.48;10.10;;;13.80;99.90;;;;;;6177280;23;20420;-84
2023/07/22 04:19:32;;;;;;;17.40;10.65;;;13.80;99.90;;;;;;6175974;23;20084;-85
2023/07/22 04:22:00;;;;;;;20.48;10.50;;;13.80;99.90;;;;;;6177327;23;20073;-84
2023/07/22 04:24:25;;;;;;;18.08;9.80;;;13.80;99.90;;;;;;6175735;23;20087;-86
2023/07/22 04:26:51;;;;;;;20.60;9.35;;;13.80;99.90;;;;;;6175928;23;20001;-90
2023/07/22 04:29:17;;;;;;;15.75;9.23;;;13.80;99.90;;;;;;6177199;23;20642;-83
2023/07/22 04:31:43;;;;;;;20.70;8.98;;;13.80;99.90;;;;;;6176350;23;20001;-84
2023/07/22 04:34:11;;;;;;;19.60;9.27;;;13.90;99.90;;;;;;6175632;23;20002;-83
2023/07/22 04:36:36;;;;;;;18.52;8.55;;;14.00;99.90;;;;;;6177377;23;20013;-84
2023/07/22 04:39:04;;;;;;;22.98;10.90;;;13.90;99.90;;;;;;6176606;23;20343;-83
2023/07/22 04:41:30;;;;;;;16.83;8.55;;;13.90;99.90;;;;;;6178889;23;20439;-84
2023/07/22 04:43:58;;;;;;;17.90;9.38;;;13.90;99.90;;;;;;6177460;23;20494;-85
2023/07/22 04:46:24;;;;;;;18.88;9.85;;;13.90;99.90;;;;;;6179536;23;20005;-85
2023/07/22 04:48:50;;;;;;;26.42;10.40;;;13.90;99.90;;;;;;6179070;23;20009;-83
2023/07/22 04:51:15;;;;;;;17.02;9.70;;;14.00;99.90;;;;;;6176549;23;20344;-85
2023/07/22 04:53:41;;;;;;;16.88;9.60;;;14.00;99.90;;;;;;6177767;23;20060;-86
2023/07/22 04:56:06;;;;;;;15.95;8.55;;;14.00;99.90;;;;;;6178087;23;20009;-85
2023/07/22 04:58:32;;;;;;;18.40;9.63;;;14.00;99.90;;;;;;6178565;23;20479;-84
2023/07/22 05:00:58;;;;;;;14.82;8.77;;;14.00;99.90;;;;;;6153050;23;19993;-84
2023/07/22 05:03:26;;;;;;;18.13;8.15;;;14.10;99.90;;;;;;6178457;23;20486;-87
2023/07/22 05:05:55;;;;;;;18.55;8.23;;;14.10;99.90;;;;;;6178872;23;20427;-83
2023/07/22 05:08:20;;;;;;;12.93;7.82;;;14.10;99.90;;;;;;6178151;23;20001;-84
2023/07/22 05:10:49;;;;;;;17.60;9.10;;;14.20;99.90;;;;;;6177532;23;20109;-85
2023/07/22 05:13:15;;;;;;;17.70;8.25;;;14.20;99.90;;;;;;6178933;23;20009;-83
2023/07/22 05:15:40;;;;;;;14.55;7.50;;;14.20;99.90;;;;;;6177513;23;20089;-86
2023/07/22 05:18:06;;;;;;;14.75;6.82;;;14.30;99.90;;;;;;6177613;23;20083;-85
2023/07/22 05:20:34;;;;;;;13.77;7.53;;;14.30;99.90;;;;;;6177542;23;20001;-85
2023/07/22 05:22:59;;;;;;;14.60;7.32;;;14.40;99.90;;;;;;6178710;23;19997;-85
2023/07/22 05:25:25;;;;;;;10.80;6.82;;;14.40;99.90;;;;;;6178339;23;20013;-84
2023/07/22 05:27:50;;;;;;;15.27;6.97;;;14.40;99.90;;;;;;6178716;23;20001;-84
2023/07/22 05:30:16;;;;;;;14.82;7.13;;;14.50;99.90;;;;;;6179148;23;20001;-84
2023/07/22 05:32:42;;;;;;;14.70;6.65;;;14.50;99.90;;;;;;6177498;23;20331;-84
2023/07/22 05:35:08;;;;;;;14.60;7.47;;;14.50;99.90;;;;;;6178510;23;20001;-84
2023/07/22 05:37:37;;;;;;;17.08;7.72;;;14.50;99.90;;;;;;6177017;23;20012;-85
2023/07/22 05:40:03;;;;;;;10.77;7.00;;;14.50;99.90;;;;;;6172973;23;20013;-84
2023/07/22 05:42:29;;;;;;;18.30;6.82;;;14.60;99.90;;;;;;6174802;23;20005;-83
2023/07/22 05:44:57;;;;;;;10.90;7.05;;;14.60;99.90;;;;;;6174270;23;20420;-85
2023/07/22 05:47:23;;;;;;;13.68;6.70;;;14.60;99.90;;;;;;6178266;23;20032;-85
2023/07/22 05:49:48;;;;;;;15.68;7.32;;;14.60;99.90;;;;;;6175466;23;19997;-84
2023/07/22 05:52:15;;;;;;;21.30;7.68;;;14.60;99.90;;;;;;6178613;23;20000;-83
2023/07/22 05:54:40;;;;;;;11.75;6.70;;;14.60;99.90;;;;;;6177904;23;20415;-85
2023/07/22 05:57:09;;;;;;;15.23;7.65;;;14.70;99.90;;;;;;6179003;23;20008;-85
2023/07/22 05:59:36;;;;;;;12.77;6.72;;;14.70;99.90;;;;;;6178134;23;20016;-85
2023/07/22 06:02:03;;;;;;;11.35;7.35;;;14.60;99.90;;;;;;6177336;23;20005;-84
2023/07/22 06:04:29;;;;;;;15.55;7.55;;;14.60;99.90;;;;;;6150349;23;20092;-83
2023/07/22 06:06:55;;;;;;;12.38;7.70;;;14.60;99.90;;;;;;6176213;23;20032;-85
2023/07/22 06:09:21;;;;;;;13.02;7.20;;;14.70;99.90;;;;;;6177133;23;20009;-85
2023/07/22 06:11:47;;;;;;;15.55;7.03;;;14.70;99.90;;;;;;6178212;23;20005;-84
2023/07/22 06:14:12;;;;;;;19.35;6.88;;;14.70;99.90;;;;;;6176551;23;20136;-85
2023/07/22 06:16:38;;;;;;;18.65;7.40;;;14.80;99.90;;;;;;6178006;23;20001;-85
2023/07/22 06:19:05;;;;;;;15.50;7.28;;;14.80;99.90;;;;;;6178305;23;20013;-83
2023/07/22 06:21:30;;;;;;;14.95;7.20;;;14.80;99.90;;;;;;6177583;23;20009;-83
2023/07/22 06:23:56;;;;;;;19.63;7.47;;;14.90;99.90;;;;;;6151712;23;20075;-85
2023/07/22 06:26:22;;;;;;;11.15;6.85;;;14.90;99.90;;;;;;6177520;23;20424;-84
2023/07/22 06:28:47;;;;;;;9.98;5.95;;;14.90;99.90;;;;;;6178159;23;20005;-88
2023/07/22 06:31:14;;;;;;;15.65;7.15;;;15.00;99.90;;;;;;6177966;23;20140;-84
2023/07/22 06:33:40;;;;;;;13.00;7.28;;;15.10;99.90;;;;;;6177726;23;20024;-83
2023/07/22 06:36:05;;;;;;;17.98;7.40;;;15.10;99.90;;;;;;6175656;23;20076;-83
2023/07/22 06:38:31;;;;;;;19.50;6.85;;;15.20;99.90;;;;;;6174944;23;20005;-85
2023/07/22 06:40:57;;;;;;;13.02;7.53;;;15.20;99.90;;;;;;6176580;23;20005;-83
2023/07/22 06:43:23;;;;;;;11.60;7.05;;;15.30;99.90;;;;;;6178153;23;20005;-84
2023/07/22 06:45:48;;;;;;;13.40;7.97;;;15.40;99.90;;;;;;6177804;23;20448;-86
2023/07/22 06:48:14;;;;;;;15.35;7.18;;;15.50;99.90;;;;;;6177560;23;20108;-82
2023/07/22 06:50:46;;;;;;;13.77;7.65;;;15.50;99.90;;;;;;6176885;23;20016;-84
2023/07/22 06:53:14;;;;;;;17.45;8.45;;;15.50;99.90;;;;;;6174886;23;20009;-83
2023/07/22 06:55:40;;;;;;;11.48;7.90;;;15.50;99.90;;;;;;6176615;23;20009;-81
2023/07/22 06:58:05;;;;;;;20.48;8.98;;;15.50;99.90;;;;;;6177948;23;20001;-83
2023/07/22 07:00:31;;;;;;;11.60;7.80;;;15.50;99.90;;;;;;6176650;23;20005;-84
2023/07/22 07:02:57;;;;;;;15.90;9.90;;;15.50;99.90;;;;;;6178034;23;20080;-83
2023/07/22 07:05:22;;;;;;;17.88;9.77;;;15.50;99.90;;;;;;6177747;23;20024;-84
2023/07/22 07:07:49;;;;;;;16.13;9.23;;;15.60;99.90;;;;;;6177700;23;20008;-83
2023/07/22 07:10:15;;;;;;;18.85;10.85;;;15.60;99.90;;;;;;6175032;23;20339;-83
2023/07/22 07:12:40;;;;;;;15.60;9.82;;;15.70;99.90;;;;;;6177391;23;20001;-84
2023/07/22 07:15:06;;;;;;;19.17;11.15;;;15.80;99.90;;;;;;6151119;23;20586;-83
2023/07/22 07:17:32;;;;;;;16.67;9.75;;;15.80;99.90;;;;;;6177031;23;20005;-82
2023/07/22 07:19:58;;;;;;;12.40;8.48;;;16.00;99.90;;;;;;6176792;23;20330;-87
2023/07/22 07:22:23;;;;;;;21.27;9.55;;;16.00;99.90;;;;;;6177259;23;20009;-82
2023/07/22 07:24:50;;;;;;;15.77;8.57;;;16.00;99.90;;;;;;6175683;23;20051;-85
2023/07/22 07:27:16;;;;;;;16.88;9.00;;;16.10;99.90;;;;;;6173592;23;20001;-83
2023/07/22 07:29:41;;;;;;;12.00;8.90;;;16.20;99.90;;;;;;6176983;23;20005;-84
2023/07/22 07:32:07;;;;;;;17.05;10.70;;;16.20;99.90;;;;;;6179040;23;20030;-84
2023/07/22 07:34:33;;;;;;;17.35;9.55;;;16.30;99.90;;;;;;6178836;23;20012;-86
2023/07/22 07:36:58;;;;;;;16.02;10.32;;;16.30;99.90;;;;;;6151044;23;20001;-83
2023/07/22 07:39:24;;;;;;;16.13;10.15;;;16.40;99.90;;;;;;6177545;23;20001;-83
2023/07/22 07:41:49;;;;;;;15.63;9.55;;;16.50;99.90;;;;;;6179093;23;20005;-84
2023/07/22 07:44:18;;;;;;;18.52;10.90;;;16.60;99.90;;;;;;6176824;23;20021;-83
2023/07/22 07:46:43;;;;;;;14.23;9.32;;;16.70;99.90;;;;;;6176917;23;20072;-82
2023/07/22 07:49:09;;;;;;;13.68;8.82;;;16.80;99.90;;;;;;6178655;23;20045;-83
2023/07/22 07:51:34;;;;;;;15.15;8.13;;;16.90;99.90;;;;;;6179986;23;20001;-83
2023/07/22 07:54:00;;;;;;;15.60;8.68;;;16.90;99.90;;;;;;6151613;23;20028;-83
2023/07/22 07:56:26;;;;;;;13.88;8.73;;;16.90;99.90;;;;;;6176502;23;20001;-84
2023/07/22 07:58:53;;;;;;;14.00;8.50;;;16.90;99.90;;;;;;6176332;23;20005;-85
2023/07/22 08:01:20;;;;;;;15.55;9.05;;;16.90;99.90;;;;;;6180288;23;20013;-85
2023/07/22 08:03:46;;;;;;;13.15;7.85;;;16.90;99.90;;;;;;6179917;23;20027;-84
2023/07/22 08:06:13;;;;;;;15.38;8.18;;;17.00;99.90;;;;;;6179074;23;20559;-84
2023/07/22 08:08:39;;;;;;;14.25;7.30;;;17.10;99.90;;;;;;6177588;23;20041;-84
2023/07/22 08:11:10;;;;;;;10.25;7.75;;;17.10;99.90;;;;;;6177416;23;20012;-84
2023/07/22 08:13:36;;;;;;;8.52;6.85;;;17.20;99.90;;;;;;6178416;23;20001;-81
2023/07/22 08:16:05;;;;;;;17.23;8.00;;;17.30;99.90;;;;;;6178085;23;20104;-84
2023/07/22 08:18:34;;;;;;;16.50;8.20;;;17.50;99.90;;;;;;6151397;23;20001;-83
2023/07/22 08:21:00;;;;;;;10.98;7.68;;;17.40;99.90;;;;;;6181445;23;20065;-86
2023/07/22 08:23:26;;;;;;;14.43;7.97;;;17.40;99.90;;;;;;6179363;23;20390;-83
2023/07/22 08:25:52;;;;;;;12.23;7.85;;;17.40;99.90;;;;;;6178595;23;20435;-85
2023/07/22 08:28:18;;;;;;;17.65;8.15;;;17.50;99.90;;;;;;6179491;23;20016;-85
2023/07/22 08:30:44;;;;;;;13.15;7.95;;;17.50;99.90;;;;;;6179528;23;20001;-85
2023/07/22 08:33:11;;;;;;;13.45;7.28;;;17.50;99.90;;;;;;6153277;23;20001;-86
2023/07/22 08:35:37;;;;;;;15.07;8.60;;;17.60;99.90;;;;;;6181482;23;20327;-85
2023/07/22 08:38:03;;;;;;;17.15;7.82;;;17.80;99.90;;;;;;6179686;23;20005;-84
2023/07/22 08:40:40;;;;;;;12.07;7.18;;;17.70;99.90;;;;;;6179611;23;19997;-86
2023/07/22 08:43:08;;;;;;;13.48;7.63;;;17.70;99.90;;;;;;6180515;23;20428;-85
2023/07/22 08:45:36;;;;;;;15.70;7.93;;;17.70;99.90;;;;;;6180782;23;20019;-84
2023/07/22 08:48:07;;;;;;;11.82;7.75;;;17.70;99.90;;;;;;6180121;23;20515;-84
2023/07/22 08:50:41;;;;;;;16.42;9.02;;;17.60;99.90;;;;;;6180657;23;20001;-83
2023/07/22 08:53:07;;;;;;;13.05;9.15;;;17.60;99.90;;;;;;6178750;23;20001;-84
2023/07/22 08:55:34;;;;;;;14.05;9.35;;;17.60;99.90;;;;;;6180124;23;20028;-86
2023/07/22 08:58:01;;;;;;;15.52;9.38;;;17.70;99.90;;;;;;6179567;23;19997;-83
2023/07/22 09:00:27;;;;;;;18.35;9.95;;;17.80;99.90;;;;;;6153950;23;20163;-82
2023/07/22 09:02:53;;;;;;;19.20;12.20;;;17.80;99.90;;;;;;6180204;23;20032;-86
2023/07/22 09:05:18;;;;;;;17.52;11.80;;;17.80;99.90;;;;;;6178088;23;20015;-82
2023/07/22 09:07:48;;;;;;;14.27;10.48;;;17.80;99.90;;;;;;6177061;23;20001;-86
2023/07/22 09:10:15;;;;;;;18.92;10.48;;;17.90;99.90;;;;;;6179089;23;20033;-85
2023/07/22 09:12:42;;;;;;;16.10;10.93;;;17.90;99.90;;;;;;6176005;23;20005;-84
2023/07/22 09:15:12;;;;;;;14.32;9.45;;;17.90;99.90;;;;;;6176955;23;20413;-84
2023/07/22 09:17:40;;;;;;;15.65;10.65;;;17.90;99.90;;;;;;6177310;23;19994;-84
2023/07/22 09:20:06;;;;;;;15.80;10.10;;;17.90;99.90;;;;;;6176898;23;20529;-82
2023/07/22 09:22:32;;;;;;;15.02;10.45;;;17.90;99.90;;;;;;6176614;23;19993;-83
2023/07/22 09:25:24;;;;;;;14.10;8.70;;;18.10;99.90;;;;;;6173612;23;20005;-84
2023/07/22 09:27:52;;;;;;;11.43;7.93;;;18.10;99.90;;;;;;6177610;23;20001;-85
2023/07/22 09:30:25;;;;;;;21.77;9.75;;;18.20;99.90;;;;;;6148330;23;20004;-84
2023/07/22 09:32:52;;;;;;;12.75;8.40;;;18.40;99.90;;;;;;6149261;23;20362;-86
2023/07/22 09:35:19;;;;;;;11.48;7.40;;;18.50;99.90;;;;;;6174590;23;20404;-85
2023/07/22 09:37:45;;;;;;;11.88;8.25;;;18.50;99.90;;;;;;6149139;23;19999;-85
2023/07/22 09:40:16;;;;;;;12.98;8.85;;;18.50;99.90;;;;;;6175649;23;21549;-84
2023/07/22 09:42:55;;;;;;;16.30;8.73;;;18.50;99.90;;;;;;6175748;23;20001;-85
2023/07/22 09:45:28;;;;;;;16.73;7.43;;;18.60;99.90;;;;;;6149329;23;20060;-84
2023/07/22 09:47:54;;;;;;;13.40;8.20;;;18.60;99.90;;;;;;6178483;23;20004;-87
2023/07/22 09:50:22;;;;;;;16.48;8.48;;;18.60;99.90;;;;;;6178071;23;20001;-85
2023/07/22 09:52:53;;;;;;;11.32;8.00;;;18.50;99.90;;;;;;6178129;23;19993;-83
2023/07/22 09:55:24;;;;;;;18.00;8.20;;;18.50;99.90;;;;;;6178337;23;20001;-87
2023/07/22 09:57:53;;;;;;;18.70;9.05;;;18.50;99.90;;;;;;6151106;23;20001;-83
2023/07/22 10:00:19;;;;;;;18.50;8.35;;;18.50;99.90;;;;;;6176799;23;20001;-82
2023/07/22 10:02:49;;;;;;;14.20;9.35;;;18.40;99.90;;;;;;6176834;23;20087;-82
2023/07/22 10:05:41;;;;;;;13.88;9.30;;;18.50;99.90;;;;;;6175449;23;20265;-83
2023/07/22 10:08:08;;;;;;;16.05;8.57;;;18.50;99.90;;;;;;6170131;23;20392;-83
2023/07/22 10:10:40;;;;;;;14.75;8.15;;;18.70;99.90;;;;;;6176291;23;19993;-83
2023/07/22 10:13:06;;;;;;;13.70;8.13;;;18.70;99.90;;;;;;6176579;23;20008;-83
2023/07/22 10:15:34;;;;;;;13.88;8.57;;;18.60;99.90;;;;;;6177139;23;20001;-84
2023/07/22 10:18:00;;;;;;;13.23;8.00;;;18.50;99.90;;;;;;6174512;23;20846;-83
2023/07/22 10:20:26;;;;;;;12.80;8.35;;;18.40;99.90;;;;;;6177087;23;20035;-84
2023/07/22 10:22:52;;;;;;;15.50;8.55;;;18.30;99.90;;;;;;6175745;23;20424;-84
2023/07/22 10:25:19;;;;;;;11.82;8.70;;;18.30;99.90;;;;;;6151168;23;20040;-82
2023/07/22 10:27:46;;;;;;;12.77;8.35;;;18.50;99.90;;;;;;6177677;23;19997;-85
2023/07/22 10:30:14;;;;;;;12.68;8.27;;;18.70;99.90;;;;;;6175252;23;20000;-83
2023/07/22 10:32:41;;;;;;;16.02;8.30;;;18.70;99.90;;;;;;6177446;23;20510;-83
2023/07/22 10:35:12;;;;;;;24.70;9.45;;;18.70;99.90;;;;;;6178223;23;20005;-83
2023/07/22 10:37:44;;;;;;;12.63;9.00;;;18.70;99.90;;;;;;6176335;23;20080;-82
2023/07/22 10:40:30;;;;;;;11.35;8.38;;;18.60;99.90;;;;;;6178245;23;20013;-85
2023/07/22 10:43:06;;;;;;;12.93;8.48;;;18.70;99.90;;;;;;6175815;23;20001;-88
2023/07/22 10:45:39;;;;;;;12.63;8.10;;;18.70;99.90;;;;;;6177280;23;20013;-83
2023/07/22 10:48:08;;;;;;;18.17;8.38;;;18.60;99.90;;;;;;6177148;23;19997;-87
2023/07/22 10:50:49;;;;;;;16.05;8.00;;;18.60;99.90;;;;;;6177763;23;20013;-83
2023/07/22 10:53:30;;;;;;;15.13;8.75;;;18.70;99.90;;;;;;6176902;23;20070;-83
2023/07/22 10:56:06;;;;;;;17.38;8.88;;;18.70;99.90;;;;;;6177136;23;20008;-83
2023/07/22 10:58:33;;;;;;;11.32;7.18;;;18.70;99.90;;;;;;6177969;23;20479;-84
2023/07/22 11:01:30;;;;;;;9.73;7.25;;;18.80;99.90;;;;;;6177092;23;20005;-85
2023/07/22 11:04:17;;;;;;;14.90;7.88;;;19.00;99.90;;;;;;6177768;23;20032;-81
2023/07/22 11:06:46;;;;;;;15.63;6.82;;;19.20;99.90;;;;;;6177205;23;20013;-84
2023/07/22 11:09:29;;;;;;;10.95;7.57;;;19.30;99.90;;;;;;6177482;23;20021;-83
2023/07/22 11:11:58;;;;;;;11.73;6.78;;;19.40;99.90;;;;;;6177451;23;20001;-84
2023/07/22 11:14:27;;;;;;;8.73;5.63;;;19.40;99.90;;;;;;6177553;23;20068;-82
2023/07/22 11:16:53;;;;;;;10.48;5.65;;;19.30;99.90;;;;;;6178625;23;20024;-82
2023/07/22 11:19:23;;;;;;;9.48;6.57;;;19.20;99.90;;;;;;6177480;23;20001;-82
2023/07/22 11:21:50;;;;;;;10.82;6.82;;;19.20;99.90;;;;;;6177851;23;20001;-81
2023/07/22 11:24:16;;;;;;;13.40;6.95;;;19.10;99.90;;;;;;6176949;23;20081;-83
2023/07/22 11:26:43;;;;;;;10.45;5.50;;;19.10;99.90;;;;;;6174309;23;20025;-83
2023/07/22 11:29:09;;;;;;;9.68;6.07;;;19.20;99.90;;;;;;6177540;23;20001;-83
2023/07/22 11:31:42;;;;;;;7.88;6.35;;;19.10;99.90;;;;;;6177701;23;20001;-83
2023/07/22 11:34:13;;;;;;;9.20;6.28;;;19.10;99.90;;;;;;6176376;23;20001;-84
2023/07/22 11:36:40;;;;;;;10.23;6.22;;;19.10;99.90;;;;;;6176756;23;20036;-84
2023/07/22 11:39:09;;;;;;;11.52;5.90;;;19.20;99.90;;;;;;6178782;23;20004;-80
2023/07/22 11:41:36;;;;;;;7.22;6.00;;;19.10;99.90;;;;;;6177442;23;20001;-82
2023/07/22 11:44:08;;;;;;;8.27;5.68;;;19.10;99.90;;;;;;6176778;23;20019;-83
2023/07/22 11:46:35;;;;;;;8.43;6.25;;;19.10;99.90;;;;;;6171812;23;20005;-83
2023/07/22 11:49:01;;;;;;;8.52;6.65;;;19.00;99.90;;;;;;6177618;23;20001;-85
2023/07/22 11:51:26;;;;;;;9.55;6.30;;;18.90;99.90;;;;;;6154276;23;20005;-84
2023/07/22 11:53:54;;;;;;;11.38;6.75;;;18.80;99.90;;;;;;6179696;23;20008;-83
2023/07/22 11:56:25;;;;;;;8.93;6.30;;;18.80;99.90;;;;;;6180714;23;20005;-84
2023/07/22 11:58:53;;;;;;;7.25;6.00;;;18.70;99.90;;;;;;6180002;23;20076;-83
2023/07/22 12:01:21;;;;;;;10.25;6.60;;;18.60;99.90;;;;;;6181067;23;20008;-83
2023/07/22 12:03:47;;;;;;;9.15;6.05;;;18.60;99.90;;;;;;6180470;23;20001;-84
2023/07/22 12:06:13;;;;;;;10.75;6.38;;;18.50;99.90;;;;;;6181676;23;20330;-84
2023/07/22 12:08:46;;;;;;;12.13;6.75;;;18.40;99.90;;;;;;6181647;23;20088;-86
2023/07/22 12:11:18;;;;;;;12.02;7.30;;;18.50;99.90;;;;;;6181192;23;20005;-85
2023/07/22 12:13:46;;;;;;;11.68;6.55;;;18.50;99.90;;;;;;6181733;23;20011;-85
2023/07/22 12:16:12;;;;;;;14.55;6.40;;;18.50;99.90;;;;;;6155075;23;20016;-85
2023/07/22 12:18:47;;;;;;;14.07;8.02;;;18.60;99.90;;;;;;6181106;23;20001;-85
2023/07/22 12:21:13;;;;;;;7.13;5.60;;;18.60;99.90;;;;;;6181395;23;20032;-85
2023/07/22 12:23:39;;;;;;;16.85;7.53;;;18.70;99.90;;;;;;6180539;23;20013;-85
2023/07/22 12:26:05;;;;;;;12.65;7.38;;;18.90;99.90;;;;;;6180989;23;20867;-83
2023/07/22 12:28:31;;;;;;;11.20;6.90;;;19.00;99.90;;;;;;6180843;23;20021;-85
2023/07/22 12:30:57;;;;;;;9.38;6.57;;;19.00;99.90;;;;;;6181248;23;20008;-85
2023/07/22 12:33:24;;;;;;;10.10;6.68;;;19.10;99.90;;;;;;6180380;23;20016;-84
2023/07/22 12:35:50;;;;;;;15.15;7.45;;;19.20;99.90;;;;;;6181530;23;20024;-84
2023/07/22 12:38:15;;;;;;;13.40;6.35;;;19.40;99.90;;;;;;6181193;23;20001;-85
2023/07/22 12:40:41;;;;;;;8.02;6.38;;;19.50;99.90;;;;;;6181421;23;20005;-82